createdAt,value
2018-01-26T00:02:03.403Z,90.90
2018-01-26T00:04:29.597Z,90.60
2018-01-26T00:06:55.710Z,90.30
2018-01-26T00:09:21.819Z,89.90
2018-01-26T00:11:48.536Z,89.20
2018-01-26T00:14:14.509Z,89.10
2018-01-26T00:16:41.225Z,89.10
2018-01-26T00:19:07.228Z,89.10
2018-01-26T00:21:33.203Z,89.00
2018-01-26T00:23:59.263Z,89.20
2018-01-26T00:26:26.119Z,89.60
2018-01-26T00:28:52.897Z,89.20
2018-01-26T00:31:18.858Z,89.20
2018-01-26T00:33:44.839Z,89.00
2018-01-26T00:36:10.819Z,89.60
2018-01-26T00:38:36.796Z,88.10
2018-01-26T00:41:02.766Z,88.70
2018-01-26T00:43:29.535Z,88.40
2018-01-26T00:45:55.655Z,88.40
2018-01-26T00:48:21.712Z,88.60
2018-01-26T00:50:47.723Z,87.20
2018-01-26T00:53:14.450Z,86.00
2018-01-26T00:55:47.519Z,85.90
2018-01-26T00:58:13.500Z,87.80
2018-01-26T01:00:39.484Z,88.10
2018-01-26T01:03:05.490Z,87.30
2018-01-26T01:05:32.228Z,88.80
2018-01-26T01:07:58.263Z,88.30
2018-01-26T01:10:25.026Z,86.40
2018-01-26T01:12:52.006Z,87.30
2018-01-26T01:15:17.981Z,87.40
2018-01-26T01:17:43.956Z,87.70
2018-01-26T01:20:10.679Z,85.10
2018-01-26T01:22:36.655Z,85.10
2018-01-26T01:25:03.374Z,87.60
2018-01-26T01:27:29.391Z,87.60
2018-01-26T01:29:55.413Z,85.50
2018-01-26T01:32:21.406Z,86.40
2018-01-26T01:34:48.115Z,87.00
2018-01-26T01:37:14.110Z,86.90
2018-01-26T01:39:40.063Z,86.10
2018-01-26T01:42:06.088Z,86.10
2018-01-26T01:44:32.064Z,87.90
2018-01-26T01:46:58.089Z,87.10
2018-01-26T01:49:24.101Z,85.40
2018-01-26T01:51:50.085Z,84.40
2018-01-26T01:54:16.041Z,85.20
2018-01-26T01:56:42.744Z,84.00
2018-01-26T01:59:08.698Z,83.90
2018-01-26T02:01:34.671Z,83.90
2018-01-26T02:04:01.424Z,84.40
2018-01-26T02:06:28.186Z,83.20
2018-01-26T02:08:54.190Z,83.20
2018-01-26T02:11:20.152Z,83.40
2018-01-26T02:13:46.128Z,85.00
2018-01-26T02:16:12.092Z,85.20
2018-01-26T02:18:40.612Z,85.20
2018-01-26T02:21:06.595Z,85.80
2018-01-26T02:23:32.580Z,85.60
2018-01-26T02:25:59.425Z,85.00
2018-01-26T02:28:25.518Z,84.90
2018-01-26T02:30:51.609Z,87.10
2018-01-26T02:33:18.400Z,86.80
2018-01-26T02:35:44.441Z,86.60
2018-01-26T02:38:29.068Z,86.40
2018-01-26T02:40:55.849Z,87.00
2018-01-26T02:43:21.893Z,86.40
2018-01-26T02:45:47.917Z,87.40
2018-01-26T02:48:13.896Z,85.80
2018-01-26T02:50:39.874Z,87.80
2018-01-26T02:53:06.633Z,84.80
2018-01-26T02:55:33.375Z,87.00
2018-01-26T02:58:00.149Z,88.30
2018-01-26T03:00:26.184Z,88.20
2018-01-26T03:02:52.989Z,88.60
2018-01-26T03:05:19.005Z,88.40
2018-01-26T03:07:45.024Z,88.40
2018-01-26T03:10:11.020Z,88.20
2018-01-26T03:12:37.028Z,88.70
2018-01-26T03:15:03.073Z,88.40
2018-01-26T03:17:29.084Z,88.70
2018-01-26T03:19:55.115Z,88.20
2018-01-26T03:22:21.139Z,88.30
2018-01-26T03:24:47.112Z,87.80
2018-01-26T03:27:13.089Z,88.30
2018-01-26T03:29:39.826Z,87.50
2018-01-26T03:32:05.844Z,87.40
2018-01-26T03:34:31.843Z,87.00
2018-01-26T03:36:57.909Z,86.60
2018-01-26T03:39:23.997Z,87.40
2018-01-26T03:41:49.983Z,87.50
2018-01-26T03:44:15.978Z,87.60
2018-01-26T03:46:41.996Z,88.20
2018-01-26T03:49:08.748Z,88.10
2018-01-26T03:51:35.486Z,88.90
2018-01-26T03:54:01.477Z,88.90
2018-01-26T03:56:27.501Z,88.80
2018-01-26T03:58:53.611Z,89.10
2018-01-26T04:01:20.324Z,88.30
2018-01-26T04:03:46.352Z,88.30
2018-01-26T04:06:12.348Z,88.60
2018-01-26T04:08:38.389Z,89.20
2018-01-26T04:11:11.420Z,89.30
2018-01-26T04:13:37.421Z,89.20
2018-01-26T04:16:03.400Z,89.40
2018-01-26T04:18:29.386Z,89.40
2018-01-26T04:20:55.408Z,89.50
2018-01-26T04:23:22.147Z,88.50
2018-01-26T04:25:48.136Z,88.40
2018-01-26T04:28:14.114Z,88.10
2018-01-26T04:30:40.112Z,88.40
2018-01-26T04:33:06.081Z,89.10
2018-01-26T04:35:32.058Z,89.50
2018-01-26T04:37:58.844Z,90.00
2018-01-26T04:40:24.926Z,90.00
2018-01-26T04:42:51.667Z,90.00
2018-01-26T04:45:17.649Z,89.90
2018-01-26T04:47:43.634Z,89.40
2018-01-26T04:50:09.620Z,89.50
2018-01-26T04:52:35.605Z,89.80
2018-01-26T04:55:01.586Z,89.90
2018-01-26T04:57:27.601Z,89.60
2018-01-26T04:59:54.352Z,88.50
2018-01-26T05:02:21.081Z,88.60
2018-01-26T05:04:48.537Z,88.80
2018-01-26T05:07:14.533Z,88.80
2018-01-26T05:09:40.504Z,89.10
2018-01-26T05:12:06.490Z,89.30
2018-01-26T05:14:33.263Z,89.70
2018-01-26T05:16:59.305Z,89.80
2018-01-26T05:19:25.311Z,89.80
2018-01-26T05:21:51.339Z,89.90
2018-01-26T05:24:18.071Z,90.00
2018-01-26T05:26:44.069Z,90.00
2018-01-26T05:29:10.044Z,90.20
2018-01-26T05:31:36.041Z,90.00
2018-01-26T05:34:02.049Z,89.60
2018-01-26T05:36:28.810Z,90.10
2018-01-26T05:38:54.900Z,90.10
2018-01-26T05:41:20.912Z,90.00
2018-01-26T05:43:46.892Z,90.40
2018-01-26T05:46:13.623Z,90.50
2018-01-26T05:48:39.604Z,90.20
2018-01-26T05:51:05.607Z,90.10
2018-01-26T05:53:31.640Z,90.00
2018-01-26T05:55:57.628Z,90.00
2018-01-26T05:58:23.642Z,90.10
2018-01-26T06:00:49.680Z,90.10
2018-01-26T06:03:16.403Z,90.00
2018-01-26T06:05:42.398Z,89.80
2018-01-26T06:08:08.384Z,90.00
2018-01-26T06:10:34.374Z,90.00
2018-01-26T06:13:00.375Z,90.00
2018-01-26T06:15:27.105Z,90.00
2018-01-26T06:17:53.402Z,89.90
2018-01-26T06:20:19.402Z,90.00
2018-01-26T06:22:46.153Z,89.80
2018-01-26T06:25:12.917Z,89.40
2018-01-26T06:27:38.936Z,89.40
2018-01-26T06:30:05.664Z,89.80
2018-01-26T06:32:31.652Z,89.70
2018-01-26T06:34:57.708Z,90.00
2018-01-26T06:37:24.033Z,90.20
2018-01-26T06:39:50.018Z,90.10
2018-01-26T06:42:15.990Z,90.40
2018-01-26T06:44:41.993Z,90.20
2018-01-26T06:47:09.504Z,90.00
2018-01-26T06:49:35.502Z,90.00
2018-01-26T06:52:01.557Z,89.70
2018-01-26T06:54:28.360Z,89.70
2018-01-26T06:56:54.415Z,89.70
2018-01-26T06:59:20.424Z,89.60
2018-01-26T07:01:46.391Z,89.70
2018-01-26T07:04:12.426Z,89.80
2018-01-26T07:06:38.417Z,90.10
2018-01-26T07:09:04.789Z,90.10
2018-01-26T07:11:30.992Z,90.00
2018-01-26T07:13:57.029Z,90.00
2018-01-26T07:16:23.062Z,90.20
2018-01-26T07:18:49.049Z,90.70
2018-01-26T07:21:15.010Z,90.60
2018-01-26T07:23:41.749Z,90.60
2018-01-26T07:26:07.733Z,90.60
2018-01-26T07:28:33.742Z,90.80
2018-01-26T07:31:00.487Z,90.70
2018-01-26T07:33:27.342Z,90.70
2018-01-26T07:35:53.382Z,90.60
2018-01-26T07:38:20.177Z,90.70
2018-01-26T07:40:46.168Z,90.70
2018-01-26T07:43:12.157Z,90.80
2018-01-26T07:45:38.170Z,91.10
2018-01-26T07:48:04.148Z,90.60
2018-01-26T07:50:30.185Z,90.50
2018-01-26T07:52:56.286Z,90.60
2018-01-26T07:55:22.335Z,90.50
2018-01-26T07:57:48.305Z,90.50
2018-01-26T08:00:14.324Z,90.00
2018-01-26T08:02:40.286Z,90.00
2018-01-26T08:05:06.261Z,89.90
2018-01-26T08:07:32.272Z,89.70
2018-01-26T08:09:59.070Z,89.50
2018-01-26T08:12:25.120Z,89.40
2018-01-26T08:14:51.112Z,88.80
2018-01-26T08:17:17.853Z,87.00
2018-01-26T08:19:44.588Z,87.70
2018-01-26T08:22:11.341Z,88.00
2018-01-26T08:24:37.329Z,88.10
2018-01-26T08:27:03.359Z,88.70
2018-01-26T08:29:29.421Z,88.40
2018-01-26T08:31:55.476Z,89.00
2018-01-26T08:34:21.456Z,89.10
2018-01-26T08:36:47.424Z,88.80
2018-01-26T08:39:13.410Z,88.60
2018-01-26T08:41:40.144Z,88.10
2018-01-26T08:44:06.141Z,88.00
2018-01-26T08:46:32.159Z,87.10
2018-01-26T08:48:58.202Z,87.20
2018-01-26T08:51:24.277Z,86.50
2018-01-26T08:53:50.281Z,86.60
2018-01-26T08:56:16.283Z,86.50
2018-01-26T08:58:43.022Z,85.90
2018-01-26T09:01:09.024Z,85.90
2018-01-26T09:03:35.001Z,85.30
2018-01-26T09:06:01.717Z,85.30
2018-01-26T09:08:27.735Z,84.60
2018-01-26T09:10:53.772Z,83.20
2018-01-26T09:13:19.772Z,82.10
2018-01-26T09:15:46.500Z,81.00
2018-01-26T09:18:12.481Z,81.00
2018-01-26T09:20:38.472Z,80.30
2018-01-26T09:23:04.464Z,80.10
2018-01-26T09:25:30.441Z,80.60
2018-01-26T09:27:56.465Z,79.60
2018-01-26T09:30:22.501Z,79.80
2018-01-26T09:32:48.484Z,79.00
2018-01-26T09:35:15.227Z,79.30
2018-01-26T09:37:41.936Z,79.90
2018-01-26T09:40:07.892Z,79.80
2018-01-26T09:42:33.885Z,78.80
2018-01-26T09:44:59.950Z,77.10
2018-01-26T09:47:25.928Z,76.00
2018-01-26T09:49:52.724Z,73.40
2018-01-26T09:52:18.704Z,73.50
2018-01-26T09:54:45.436Z,73.70
2018-01-26T09:57:11.411Z,73.60
2018-01-26T09:59:37.369Z,73.10
2018-01-26T10:02:03.393Z,73.40
2018-01-26T10:04:29.404Z,74.70
2018-01-26T10:06:55.536Z,74.50
2018-01-26T10:09:22.337Z,74.00
2018-01-26T10:11:48.328Z,74.00
2018-01-26T10:14:15.060Z,73.30
2018-01-26T10:16:41.040Z,73.30
2018-01-26T10:19:07.053Z,73.00
2018-01-26T10:21:33.796Z,75.60
2018-01-26T10:23:59.842Z,75.70
2018-01-26T10:26:26.665Z,75.80
2018-01-26T10:28:52.746Z,75.70
2018-01-26T10:31:19.469Z,74.90
2018-01-26T10:33:45.444Z,74.90
2018-01-26T10:36:11.436Z,76.70
2018-01-26T10:38:37.421Z,78.30
2018-01-26T10:41:03.406Z,78.00
2018-01-26T10:43:30.890Z,75.90
2018-01-26T10:45:56.922Z,75.90
2018-01-26T10:48:22.950Z,76.90
2018-01-26T10:50:48.922Z,77.00
2018-01-26T10:53:15.660Z,78.30
2018-01-26T10:55:42.380Z,78.00
2018-01-26T10:58:08.360Z,77.90
2018-01-26T11:00:35.095Z,77.90
2018-01-26T11:03:01.076Z,77.80
2018-01-26T11:05:27.068Z,76.80
2018-01-26T11:07:53.837Z,76.10
2018-01-26T11:10:20.589Z,74.80
2018-01-26T11:12:47.310Z,73.60
2018-01-26T11:15:13.292Z,73.50
2018-01-26T11:17:39.264Z,74.00
2018-01-26T11:20:05.252Z,73.30
2018-01-26T11:22:31.236Z,72.00
2018-01-26T11:24:57.274Z,72.60
2018-01-26T11:27:23.292Z,71.80
2018-01-26T11:29:49.283Z,72.40
2018-01-26T11:32:16.009Z,72.90
2018-01-26T11:34:41.992Z,72.80
2018-01-26T11:37:07.963Z,72.40
2018-01-26T11:39:33.961Z,72.50
2018-01-26T11:41:59.966Z,71.20
2018-01-26T11:44:25.962Z,71.10
2018-01-26T11:46:51.949Z,70.20
2018-01-26T11:49:18.699Z,70.70
2018-01-26T11:51:45.414Z,71.40
2018-01-26T11:54:11.409Z,70.80
2018-01-26T11:56:37.380Z,71.40
2018-01-26T11:59:03.380Z,70.40
2018-01-26T12:01:29.444Z,70.30
2018-01-26T12:03:55.454Z,70.00
2018-01-26T12:06:21.416Z,69.20
2018-01-26T12:08:47.431Z,70.50
2018-01-26T12:11:13.407Z,70.20
2018-01-26T12:13:39.416Z,70.80
2018-01-26T12:16:05.437Z,70.20
2018-01-26T12:18:31.428Z,69.00
2018-01-26T12:20:57.442Z,69.60
2018-01-26T12:23:23.544Z,70.70
2018-01-26T12:25:49.568Z,69.10
2018-01-26T12:28:16.345Z,68.20
2018-01-26T12:30:42.337Z,68.20
2018-01-26T12:33:08.302Z,68.70
2018-01-26T12:35:34.316Z,69.50
2018-01-26T12:38:01.042Z,71.00
2018-01-26T12:40:27.165Z,71.00
2018-01-26T12:42:53.257Z,69.00
2018-01-26T12:45:19.246Z,70.40
2018-01-26T12:47:45.208Z,68.90
2018-01-26T12:50:11.176Z,70.10
2018-01-26T12:52:37.157Z,70.70
2018-01-26T12:55:03.877Z,70.00
2018-01-26T12:57:29.845Z,69.90
2018-01-26T12:59:56.585Z,69.70
2018-01-26T13:02:22.544Z,69.70
2018-01-26T13:04:48.596Z,69.20
2018-01-26T13:07:14.617Z,69.10
2018-01-26T13:09:40.606Z,68.20
2018-01-26T13:12:06.573Z,68.80
2018-01-26T13:14:33.284Z,68.40
2018-01-26T13:16:59.244Z,68.30
2018-01-26T13:19:25.216Z,70.80
2018-01-26T13:21:51.173Z,70.40
2018-01-26T13:24:17.151Z,70.50
2018-01-26T13:26:43.112Z,71.50
2018-01-26T13:29:09.825Z,71.80
2018-01-26T13:31:35.816Z,71.70
2018-01-26T13:34:01.769Z,71.80
2018-01-26T13:36:27.927Z,71.50
2018-01-26T13:38:53.724Z,72.40
2018-01-26T13:41:19.737Z,72.00
2018-01-26T13:43:46.488Z,70.40
2018-01-26T13:46:13.198Z,71.10
2018-01-26T13:48:39.157Z,70.90
2018-01-26T13:51:05.136Z,71.40
2018-01-26T13:53:31.101Z,71.70
2018-01-26T13:55:57.078Z,72.40
2018-01-26T13:58:23.821Z,74.30
2018-01-26T14:00:49.884Z,74.20
2018-01-26T14:03:15.950Z,73.80
2018-01-26T14:05:41.914Z,73.60
2018-01-26T14:08:07.884Z,73.50
2018-01-26T14:10:33.854Z,74.00
2018-01-26T14:12:59.805Z,74.20
2018-01-26T14:15:25.773Z,74.30
2018-01-26T14:17:52.469Z,73.70
2018-01-26T14:20:18.489Z,73.50
2018-01-26T14:22:44.507Z,73.40
2018-01-26T14:25:10.492Z,73.60
2018-01-26T14:27:36.449Z,72.80
2018-01-26T14:30:02.438Z,72.40
2018-01-26T14:32:28.428Z,72.90
2018-01-26T14:34:54.401Z,73.20
2018-01-26T14:37:20.372Z,72.80
2018-01-26T14:39:46.369Z,72.00
2018-01-26T14:42:12.333Z,72.40
2018-01-26T14:44:38.295Z,72.50
2018-01-26T14:47:04.268Z,74.10
2018-01-26T14:49:30.232Z,74.80
2018-01-26T14:51:56.220Z,75.60
2018-01-26T14:54:22.936Z,76.40
2018-01-26T14:56:48.974Z,76.30
2018-01-26T14:59:14.992Z,76.70
2018-01-26T15:01:40.969Z,76.50
2018-01-26T15:04:06.925Z,77.00
2018-01-26T15:06:33.636Z,77.30
2018-01-26T15:08:59.604Z,77.30
2018-01-26T15:11:26.324Z,77.80
2018-01-26T15:13:52.297Z,77.70
2018-01-26T15:16:19.055Z,78.40
2018-01-26T15:18:45.068Z,78.40
2018-01-26T15:21:11.029Z,77.80
2018-01-26T15:23:37.744Z,75.30
2018-01-26T15:26:03.716Z,75.20
2018-01-26T15:28:30.438Z,76.00
2018-01-26T15:30:56.404Z,76.00
2018-01-26T15:33:23.506Z,76.50
2018-01-26T15:35:49.506Z,76.50
2018-01-26T15:38:15.508Z,76.80
2018-01-26T15:40:41.487Z,77.50
2018-01-26T15:43:07.448Z,77.50
2018-01-26T15:45:33.420Z,78.10
2018-01-26T15:47:59.388Z,77.90
2018-01-26T15:50:25.368Z,78.20
2018-01-26T15:52:51.355Z,78.80
2018-01-26T15:55:17.374Z,79.40
2018-01-26T15:57:43.670Z,79.80
2018-01-26T16:00:09.697Z,80.50
2018-01-26T16:02:35.668Z,80.50
2018-01-26T16:05:01.704Z,80.70
2018-01-26T16:07:27.704Z,81.20
2018-01-26T16:09:53.693Z,81.60
2018-01-26T16:12:20.424Z,81.10
2018-01-26T16:14:46.479Z,81.10
2018-01-26T16:17:13.201Z,81.40
2018-01-26T16:19:39.173Z,81.40
2018-01-26T16:22:05.884Z,81.80
2018-01-26T16:24:31.856Z,81.70
2018-01-26T16:26:58.564Z,81.80
2018-01-26T16:29:24.534Z,81.80
2018-01-26T16:31:51.288Z,82.00
2018-01-26T16:34:17.296Z,81.90
2018-01-26T16:36:43.296Z,82.50
2018-01-26T16:39:09.260Z,82.70
2018-01-26T16:41:35.236Z,83.40
2018-01-26T16:44:02.241Z,83.50
2018-01-26T16:46:28.245Z,83.50
2018-01-26T16:48:54.221Z,83.90
2018-01-26T16:51:20.241Z,83.70
2018-01-26T16:53:46.240Z,83.90
2018-01-26T16:56:12.980Z,83.20
2018-01-26T16:58:38.936Z,83.00
2018-01-26T17:01:04.909Z,83.40
2018-01-26T17:03:31.161Z,84.20
2018-01-26T17:05:57.129Z,84.20
2018-01-26T17:08:23.097Z,84.60
2018-01-26T17:10:49.093Z,84.80
2018-01-26T17:13:15.088Z,85.30
2018-01-26T17:15:41.060Z,85.50
2018-01-26T17:18:07.033Z,85.50
2018-01-26T17:20:33.011Z,86.00
2018-01-26T17:22:58.973Z,85.90
2018-01-26T17:25:24.945Z,85.30
2018-01-26T17:27:50.933Z,85.20
2018-01-26T17:30:16.929Z,85.40
2018-01-26T17:32:42.904Z,86.00
2018-01-26T17:35:08.876Z,85.90
2018-01-26T17:37:35.581Z,85.70
2018-01-26T17:40:01.545Z,85.70
2018-01-26T17:42:27.513Z,86.30
2018-01-26T17:44:53.465Z,85.20
2018-01-26T17:47:19.442Z,85.20
2018-01-26T17:49:45.421Z,85.00
2018-01-26T17:52:11.404Z,85.60
2018-01-26T17:54:37.371Z,85.90
2018-01-26T17:57:04.098Z,87.00
2018-01-26T17:59:30.071Z,86.90
2018-01-26T18:01:56.053Z,87.20
2018-01-26T18:04:22.033Z,87.70
2018-01-26T18:06:48.812Z,88.60
2018-01-26T18:09:14.817Z,88.40
2018-01-26T18:11:41.522Z,89.60
2018-01-26T18:14:07.489Z,89.60
2018-01-26T18:16:33.476Z,90.00
2018-01-26T18:18:59.440Z,90.10
2018-01-26T18:21:25.428Z,90.10
2018-01-26T18:23:51.389Z,90.00
2018-01-26T18:26:17.375Z,90.10
2018-01-26T18:28:44.104Z,90.10
2018-01-26T18:31:10.077Z,90.10
2018-01-26T18:33:36.056Z,90.20
2018-01-26T18:36:02.082Z,90.30
2018-01-26T18:38:28.048Z,90.30
2018-01-26T18:40:54.028Z,90.30
2018-01-26T18:43:20.036Z,90.50
2018-01-26T18:45:46.764Z,90.50
2018-01-26T18:48:13.081Z,90.50
2018-01-26T18:50:39.047Z,90.50
2018-01-26T18:53:05.765Z,90.50
2018-01-26T18:55:31.729Z,90.50
2018-01-26T18:57:57.694Z,90.30
2018-01-26T19:00:24.404Z,90.20
2018-01-26T19:02:50.396Z,90.20
2018-01-26T19:05:17.144Z,90.10
2018-01-26T19:07:43.132Z,90.10
2018-01-26T19:10:09.093Z,90.00
2018-01-26T19:12:36.104Z,89.50
2018-01-26T19:15:02.112Z,89.50
2018-01-26T19:17:28.828Z,89.60
2018-01-26T19:19:54.789Z,89.50
2018-01-26T19:22:21.504Z,89.80
2018-01-26T19:24:47.498Z,89.80
2018-01-26T19:27:13.485Z,89.90
2018-01-26T19:29:39.701Z,89.70
2018-01-26T19:32:05.684Z,89.50
2018-01-26T19:34:32.392Z,89.40
2018-01-26T19:36:58.396Z,89.30
2018-01-26T19:39:24.348Z,89.40
2018-01-26T19:41:50.343Z,89.40
2018-01-26T19:44:17.050Z,89.20
2018-01-26T19:46:43.039Z,89.20
2018-01-26T19:49:09.743Z,89.30
2018-01-26T19:51:35.969Z,89.10
2018-01-26T19:54:01.948Z,89.40
2018-01-26T19:56:27.926Z,89.40
2018-01-26T19:58:53.897Z,89.60
2018-01-26T20:01:19.868Z,90.00
2018-01-26T20:03:59.172Z,90.00
2018-01-26T20:06:32.302Z,90.00
2018-01-26T20:09:03.361Z,90.00
2018-01-26T20:11:29.365Z,90.10
2018-01-26T20:13:55.339Z,90.20
2018-01-26T20:16:21.377Z,90.30
2018-01-26T20:18:48.131Z,90.30
2018-01-26T20:21:16.669Z,90.20
2018-01-26T20:23:42.833Z,90.20
2018-01-26T20:26:08.806Z,90.00
2018-01-26T20:28:35.512Z,89.40
2018-01-26T20:31:01.472Z,89.30
2018-01-26T20:33:27.444Z,89.50
2018-01-26T20:35:53.432Z,89.80
2018-01-26T20:38:19.473Z,90.10
2018-01-26T20:40:45.456Z,90.30
2018-01-26T20:43:11.429Z,90.30
2018-01-26T20:45:37.392Z,90.50
2018-01-26T20:48:03.361Z,90.50
2018-01-26T20:50:29.336Z,90.50
2018-01-26T20:52:55.310Z,90.50
2018-01-26T20:55:22.021Z,90.60
2018-01-26T20:57:49.084Z,90.60
2018-01-26T21:00:15.121Z,90.70
2018-01-26T21:02:41.125Z,90.80
2018-01-26T21:05:07.085Z,90.70
2018-01-26T21:07:33.065Z,90.70
2018-01-26T21:09:59.775Z,90.70
2018-01-26T21:12:25.757Z,90.70
2018-01-26T21:14:52.524Z,90.80
2018-01-26T21:17:18.489Z,90.80
2018-01-26T21:19:44.444Z,90.80
2018-01-26T21:22:10.472Z,90.80
2018-01-26T21:24:37.148Z,90.80
2018-01-26T21:27:03.144Z,90.70
2018-01-26T21:29:29.116Z,90.80
2018-01-26T21:31:55.132Z,90.50
2018-01-26T21:34:21.107Z,90.50
2018-01-26T21:36:47.928Z,90.70
2018-01-26T21:39:13.944Z,90.70
2018-01-26T21:41:39.993Z,90.80
2018-01-26T21:44:05.983Z,90.60
2018-01-26T21:46:31.956Z,90.70
2018-01-26T21:48:57.913Z,90.40
2018-01-26T21:51:23.888Z,90.00
2018-01-26T21:53:50.656Z,90.00
2018-01-26T21:56:16.839Z,90.00
2018-01-26T21:58:42.818Z,90.00
2018-01-26T22:01:09.517Z,90.10
2018-01-26T22:03:35.488Z,90.10
2018-01-26T22:06:08.409Z,90.00
2018-01-26T22:08:34.397Z,89.90
2018-01-26T22:11:00.365Z,89.60
2018-01-26T22:13:27.078Z,88.70
2018-01-26T22:15:53.077Z,88.70
2018-01-26T22:18:19.219Z,87.50
2018-01-26T22:20:45.301Z,87.10
2018-01-26T22:23:11.293Z,88.10
2018-01-26T22:25:37.278Z,87.00
2018-01-26T22:28:03.282Z,87.40
2018-01-26T22:30:29.251Z,87.60
2018-01-26T22:32:55.237Z,88.20
2018-01-26T22:35:21.254Z,88.60
2018-01-26T22:37:47.464Z,88.90
2018-01-26T22:40:15.075Z,88.70
2018-01-26T22:42:41.345Z,88.50
2018-01-26T22:45:07.585Z,88.90
2018-01-26T22:47:33.556Z,88.90
2018-01-26T22:49:59.521Z,88.40
2018-01-26T22:52:25.513Z,88.50
2018-01-26T22:54:51.489Z,88.60
2018-01-26T22:57:18.249Z,88.30
2018-01-26T22:59:45.053Z,88.30
2018-01-26T23:02:11.025Z,87.30
2018-01-26T23:04:37.737Z,86.60
2018-01-26T23:07:03.717Z,86.60
2018-01-26T23:09:30.440Z,87.30
2018-01-26T23:11:56.426Z,87.20
2018-01-26T23:14:22.690Z,86.50
2018-01-26T23:16:48.745Z,85.60
2018-01-26T23:19:14.757Z,86.00
2018-01-26T23:21:40.725Z,86.70
2018-01-26T23:24:08.175Z,86.30
2018-01-26T23:26:34.136Z,86.30
2018-01-26T23:29:00.153Z,86.30
2018-01-26T23:31:26.111Z,86.40
2018-01-26T23:33:52.073Z,86.30
2018-01-26T23:36:18.062Z,87.10
2018-01-26T23:38:44.089Z,86.60
2018-01-26T23:41:10.044Z,87.50
2018-01-26T23:43:36.013Z,86.90
2018-01-26T23:46:01.998Z,86.70
2018-01-26T23:48:27.966Z,87.20
2018-01-26T23:50:54.676Z,86.90
2018-01-26T23:53:20.646Z,86.90
2018-01-26T23:55:46.654Z,87.20
2018-01-26T23:58:12.629Z,87.70
